createdAt,value
2022-09-09T00:01:48.239Z,16.89
2022-09-09T00:04:18.304Z,16.89
2022-09-09T00:07:34.180Z,16.85
2022-09-09T00:10:14.556Z,16.76
2022-09-09T00:13:07.903Z,16.73
2022-09-09T00:15:44.085Z,16.78
2022-09-09T00:18:53.028Z,16.80
2022-09-09T00:21:21.882Z,16.76
2022-09-09T00:23:53.770Z,16.76
2022-09-09T00:26:40.467Z,16.75
2022-09-09T00:29:13.102Z,16.76
2022-09-09T00:31:40.110Z,16.77
2022-09-09T00:34:20.914Z,16.74
2022-09-09T00:36:50.567Z,16.72
2022-09-09T00:39:39.182Z,16.70
2022-09-09T00:42:19.431Z,16.74
2022-09-09T00:44:56.898Z,16.74
2022-09-09T00:47:40.166Z,16.78
2022-09-09T00:50:45.154Z,16.75
2022-09-09T00:53:30.338Z,16.74
2022-09-09T00:56:10.637Z,16.73
2022-09-09T00:58:37.142Z,16.71
2022-09-09T01:01:12.213Z,16.72
2022-09-09T01:04:00.694Z,16.73
2022-09-09T01:06:38.124Z,16.72
2022-09-09T01:09:33.722Z,16.68
2022-09-09T01:12:15.986Z,16.65
2022-09-09T01:15:13.397Z,16.57
2022-09-09T01:17:53.218Z,16.52
2022-09-09T01:20:32.580Z,16.50
2022-09-09T01:23:32.754Z,16.45
2022-09-09T01:26:24.141Z,16.43
2022-09-09T01:28:53.767Z,16.42
2022-09-09T01:31:42.493Z,16.40
2022-09-09T01:34:16.367Z,16.38
2022-09-09T01:36:54.045Z,16.39
2022-09-09T01:39:21.953Z,16.39
2022-09-09T01:41:48.648Z,16.35
2022-09-09T01:44:15.303Z,16.33
2022-09-09T01:46:41.884Z,16.30
2022-09-09T01:49:10.824Z,16.27
2022-09-09T01:51:39.091Z,16.29
2022-09-09T01:54:06.193Z,16.25
2022-09-09T01:56:56.613Z,16.28
2022-09-09T01:59:42.625Z,16.27
2022-09-09T02:02:19.406Z,16.36
2022-09-09T02:05:22.320Z,16.39
2022-09-09T02:07:51.716Z,16.37
2022-09-09T02:10:45.886Z,16.38
2022-09-09T02:13:16.019Z,16.40
2022-09-09T02:15:57.180Z,16.40
2022-09-09T02:18:58.680Z,16.40
2022-09-09T02:21:26.352Z,16.46
2022-09-09T02:23:54.178Z,16.48
2022-09-09T02:26:24.458Z,16.47
2022-09-09T02:28:55.135Z,16.49
2022-09-09T02:31:25.481Z,16.51
2022-09-09T02:33:57.177Z,16.51
2022-09-09T02:36:26.884Z,16.50
2022-09-09T02:38:54.921Z,16.49
2022-09-09T02:41:27.325Z,16.47
2022-09-09T02:43:53.857Z,16.46
2022-09-09T02:46:58.048Z,16.45
2022-09-09T02:49:43.308Z,16.39
2022-09-09T02:52:17.219Z,16.38
2022-09-09T02:54:44.497Z,16.38
2022-09-09T02:57:31.767Z,16.37
2022-09-09T03:00:00.031Z,16.37
2022-09-09T03:02:26.908Z,16.37
2022-09-09T03:04:53.696Z,16.33
2022-09-09T03:07:20.942Z,16.30
2022-09-09T03:09:47.453Z,16.29
2022-09-09T03:12:14.434Z,16.29
2022-09-09T03:14:41.020Z,16.28
2022-09-09T03:17:07.558Z,16.29
2022-09-09T03:19:36.300Z,16.30
2022-09-09T03:22:02.974Z,16.31
2022-09-09T03:24:31.944Z,16.36
2022-09-09T03:26:58.525Z,16.39
2022-09-09T03:29:25.146Z,16.39
2022-09-09T03:31:52.265Z,16.38
2022-09-09T03:34:18.828Z,16.40
2022-09-09T03:36:45.722Z,16.41
2022-09-09T03:39:12.244Z,16.41
2022-09-09T03:41:39.290Z,16.44
2022-09-09T03:44:05.818Z,16.44
2022-09-09T03:46:33.060Z,16.42
2022-09-09T03:48:59.575Z,16.39
2022-09-09T03:51:26.077Z,16.36
2022-09-09T03:53:52.760Z,16.37
2022-09-09T03:56:19.267Z,16.36
2022-09-09T03:58:45.820Z,16.31
2022-09-09T04:01:14.754Z,16.29
2022-09-09T04:03:41.940Z,16.26
2022-09-09T04:06:11.862Z,16.26
2022-09-09T04:08:39.673Z,16.29
2022-09-09T04:11:07.428Z,16.30
2022-09-09T04:13:40.190Z,16.30
2022-09-09T04:16:07.369Z,16.33
2022-09-09T04:18:35.628Z,16.31
2022-09-09T04:21:04.659Z,16.29
2022-09-09T04:23:31.206Z,16.29
2022-09-09T04:25:59.763Z,16.34
2022-09-09T04:28:29.338Z,16.33
2022-09-09T04:30:57.380Z,16.35
2022-09-09T04:33:27.594Z,16.37
2022-09-09T04:35:54.781Z,16.40
2022-09-09T04:38:23.659Z,16.43
2022-09-09T04:40:52.891Z,16.43
2022-09-09T04:43:23.367Z,16.44
2022-09-09T04:45:52.250Z,16.42
2022-09-09T04:48:19.998Z,16.44
2022-09-09T04:50:58.769Z,16.43
2022-09-09T04:53:26.434Z,16.46
2022-09-09T04:55:54.463Z,16.46
2022-09-09T04:58:22.892Z,16.47
2022-09-09T05:00:49.444Z,16.48
2022-09-09T05:03:15.990Z,16.48
2022-09-09T05:05:42.593Z,16.49
2022-09-09T05:08:10.015Z,16.50
2022-09-09T05:10:39.100Z,16.50
2022-09-09T05:13:06.186Z,16.53
2022-09-09T05:15:32.751Z,16.54
2022-09-09T05:18:03.477Z,16.55
2022-09-09T05:20:30.087Z,16.56
2022-09-09T05:22:57.817Z,16.61
2022-09-09T05:25:27.100Z,16.61
2022-09-09T05:27:55.056Z,16.62
2022-09-09T05:30:24.268Z,16.61
2022-09-09T05:32:51.237Z,16.66
2022-09-09T05:35:19.602Z,16.67
2022-09-09T05:37:47.092Z,16.69
2022-09-09T05:40:13.981Z,16.75
2022-09-09T05:42:41.028Z,16.79
2022-09-09T05:45:09.011Z,16.81
2022-09-09T05:47:38.390Z,16.83
2022-09-09T05:50:05.746Z,16.87
2022-09-09T05:52:32.979Z,16.91
2022-09-09T05:55:00.332Z,16.94
2022-09-09T05:57:26.789Z,16.98
2022-09-09T05:59:54.764Z,16.99
2022-09-09T06:02:21.437Z,17.04
2022-09-09T06:04:48.090Z,17.04
2022-09-09T06:07:15.573Z,17.04
2022-09-09T06:09:42.505Z,17.08
2022-09-09T06:12:09.088Z,17.10
2022-09-09T06:14:35.632Z,17.12
2022-09-09T06:17:03.462Z,17.14
2022-09-09T06:19:29.991Z,17.17
2022-09-09T06:21:56.531Z,17.21
2022-09-09T06:24:23.288Z,17.26
2022-09-09T06:26:49.834Z,17.30
2022-09-09T06:29:16.334Z,17.35
2022-09-09T06:31:43.077Z,17.38
2022-09-09T06:34:10.156Z,17.47
2022-09-09T06:36:39.574Z,17.60
2022-09-09T06:39:12.127Z,17.74
2022-09-09T06:41:41.035Z,17.77
2022-09-09T06:44:07.717Z,17.83
2022-09-09T06:46:34.818Z,17.87
2022-09-09T06:49:01.653Z,17.91
2022-09-09T06:51:33.016Z,17.96
2022-09-09T06:54:02.173Z,18.01
2022-09-09T06:56:31.618Z,18.01
2022-09-09T06:59:04.879Z,18.05
2022-09-09T07:01:33.918Z,17.98
2022-09-09T07:04:01.710Z,17.93
2022-09-09T07:06:40.931Z,17.90
2022-09-09T07:09:09.974Z,17.92
2022-09-09T07:11:40.943Z,17.93
2022-09-09T07:14:08.049Z,17.96
2022-09-09T07:16:38.168Z,18.02
2022-09-09T07:19:05.476Z,18.12
2022-09-09T07:21:34.105Z,18.27
2022-09-09T07:24:01.631Z,18.43
2022-09-09T07:26:30.987Z,18.49
2022-09-09T07:28:58.273Z,18.47
2022-09-09T07:31:37.344Z,18.43
2022-09-09T07:34:05.753Z,18.44
2022-09-09T07:36:34.833Z,18.47
2022-09-09T07:39:08.017Z,18.42
2022-09-09T07:41:43.230Z,18.48
2022-09-09T07:44:15.711Z,18.59
2022-09-09T07:46:42.700Z,18.70
2022-09-09T07:49:10.706Z,18.74
2022-09-09T07:51:40.183Z,18.83
2022-09-09T07:54:10.409Z,18.79
2022-09-09T07:56:40.261Z,18.88
2022-09-09T07:59:07.482Z,19.11
2022-09-09T08:01:40.653Z,19.19
2022-09-09T08:04:10.246Z,19.26
2022-09-09T08:06:40.642Z,19.41
2022-09-09T08:09:09.267Z,19.47
2022-09-09T08:11:39.305Z,19.51
2022-09-09T08:14:08.382Z,19.26
2022-09-09T08:16:37.681Z,19.22
2022-09-09T08:19:04.850Z,19.14
2022-09-09T08:21:33.842Z,19.23
2022-09-09T08:24:02.546Z,19.19
2022-09-09T08:26:32.084Z,19.17
2022-09-09T08:29:00.667Z,19.28
2022-09-09T08:31:39.189Z,19.23
2022-09-09T08:34:07.249Z,19.33
2022-09-09T08:36:36.990Z,19.46
2022-09-09T08:39:06.108Z,19.66
2022-09-09T08:41:44.826Z,19.70
2022-09-09T08:44:15.828Z,19.77
2022-09-09T08:46:51.766Z,19.71
2022-09-09T08:49:47.674Z,19.71
2022-09-09T08:52:20.913Z,19.88
2022-09-09T08:54:52.570Z,20.07
2022-09-09T08:57:29.443Z,20.27
2022-09-09T08:59:57.750Z,20.49
2022-09-09T09:02:50.753Z,20.62
2022-09-09T09:05:32.789Z,20.47
2022-09-09T09:08:37.219Z,20.38
2022-09-09T09:11:03.993Z,20.25
2022-09-09T09:13:43.687Z,20.11
2022-09-09T09:16:21.250Z,19.88
2022-09-09T09:18:48.012Z,19.97
2022-09-09T09:21:22.219Z,20.00
2022-09-09T09:24:00.714Z,20.00
2022-09-09T09:26:33.815Z,19.90
2022-09-09T09:29:10.219Z,19.95
2022-09-09T09:31:36.762Z,19.94
2022-09-09T09:34:03.521Z,19.99
2022-09-09T09:36:42.556Z,19.91
2022-09-09T09:41:58.741Z,19.90
2022-09-09T09:44:32.649Z,19.89
2022-09-09T09:47:19.666Z,20.00
2022-09-09T09:50:20.415Z,20.04
2022-09-09T09:52:56.708Z,20.01
2022-09-09T09:55:25.239Z,20.05
2022-09-09T09:57:52.953Z,20.07
2022-09-09T10:00:22.737Z,20.12
2022-09-09T10:02:52.847Z,20.09
2022-09-09T10:05:35.555Z,20.20
2022-09-09T10:08:15.363Z,20.31
2022-09-09T10:11:03.134Z,20.51
2022-09-09T10:13:55.574Z,20.65
2022-09-09T10:16:43.939Z,20.63
2022-09-09T10:19:16.593Z,20.67
2022-09-09T10:21:45.974Z,20.67
2022-09-09T10:24:45.534Z,20.63
2022-09-09T10:27:24.499Z,20.57
2022-09-09T10:30:19.997Z,20.45
2022-09-09T10:36:21.515Z,20.48
2022-09-09T10:38:58.499Z,20.40
2022-09-09T10:41:57.104Z,20.36
2022-09-09T10:44:58.540Z,20.17
2022-09-09T10:47:51.982Z,20.04
2022-09-09T10:50:21.420Z,20.04
2022-09-09T10:53:03.768Z,20.12
2022-09-09T10:55:39.111Z,20.13
2022-09-09T10:58:07.622Z,20.18
2022-09-09T11:00:46.414Z,20.28
2022-09-09T11:03:34.448Z,20.43
2022-09-09T11:06:06.860Z,20.54
2022-09-09T11:08:39.278Z,20.66
2022-09-09T11:11:06.094Z,20.68
2022-09-09T11:13:44.317Z,20.65
2022-09-09T11:16:28.327Z,20.64
2022-09-09T11:19:01.659Z,20.51
2022-09-09T11:21:39.213Z,20.51
2022-09-09T11:24:20.400Z,20.56
2022-09-09T11:26:54.495Z,20.62
2022-09-09T11:29:35.549Z,20.63
2022-09-09T11:32:46.981Z,20.77
2022-09-09T11:35:54.808Z,21.00
2022-09-09T11:38:46.306Z,21.25
2022-09-09T11:41:19.345Z,21.13
2022-09-09T11:43:53.199Z,21.16
2022-09-09T11:46:35.025Z,20.95
2022-09-09T11:49:04.170Z,20.86
2022-09-09T11:51:33.162Z,20.81
2022-09-09T11:54:23.930Z,20.84
2022-09-09T11:56:50.616Z,20.82
2022-09-09T11:59:33.494Z,20.98
2022-09-09T12:01:59.996Z,21.11
2022-09-09T12:04:26.577Z,21.18
2022-09-09T12:07:00.196Z,21.11
2022-09-09T12:09:47.609Z,21.01
2022-09-09T12:12:14.307Z,20.87
2022-09-09T12:14:44.302Z,20.69
2022-09-09T12:17:32.469Z,20.70
2022-09-09T12:20:24.647Z,20.71
2022-09-09T12:23:10.092Z,20.81
2022-09-09T12:25:45.625Z,21.02
2022-09-09T12:28:38.396Z,21.12
2022-09-09T12:31:29.205Z,20.96
2022-09-09T12:33:55.835Z,20.80
2022-09-09T12:36:34.027Z,20.59
2022-09-09T12:39:33.589Z,20.19
2022-09-09T12:42:00.359Z,20.01
2022-09-09T12:44:30.752Z,19.77
2022-09-09T12:47:01.012Z,19.72
2022-09-09T12:49:35.568Z,19.57
2022-09-09T12:52:06.582Z,19.51
2022-09-09T12:54:38.576Z,19.49
2022-09-09T12:57:06.313Z,19.40
2022-09-09T12:59:38.780Z,19.31
2022-09-09T13:02:18.777Z,19.12
2022-09-09T13:04:46.547Z,18.97
2022-09-09T13:07:13.135Z,18.76
2022-09-09T13:09:39.927Z,18.73
2022-09-09T13:12:14.845Z,18.78
2022-09-09T13:14:47.751Z,18.83
2022-09-09T13:17:25.886Z,18.87
2022-09-09T13:19:57.435Z,18.90
2022-09-09T13:22:37.683Z,19.11
2022-09-09T13:25:18.116Z,19.36
2022-09-09T13:28:01.870Z,19.60
2022-09-09T13:30:34.580Z,19.82
2022-09-09T13:33:10.119Z,19.89
2022-09-09T13:35:57.248Z,19.94
2022-09-09T13:38:27.670Z,19.99
2022-09-09T13:41:11.897Z,19.77
2022-09-09T13:43:48.393Z,19.64
2022-09-09T13:46:37.900Z,19.61
2022-09-09T13:49:10.299Z,19.92
2022-09-09T13:51:38.348Z,20.33
2022-09-09T13:54:10.891Z,20.63
2022-09-09T13:56:39.729Z,20.93
2022-09-09T13:59:11.771Z,21.35
2022-09-09T14:01:38.605Z,21.62
2022-09-09T14:04:08.620Z,21.81
2022-09-09T14:06:38.289Z,21.66
2022-09-09T14:09:11.167Z,21.50
2022-09-09T14:11:37.662Z,21.30
2022-09-09T14:14:04.312Z,21.24
2022-09-09T14:16:30.969Z,21.30
2022-09-09T14:18:58.180Z,21.32
2022-09-09T14:21:25.587Z,21.47
2022-09-09T14:23:53.825Z,21.79
2022-09-09T14:26:22.177Z,21.97
2022-09-09T14:28:55.421Z,21.77
2022-09-09T14:31:26.398Z,21.48
2022-09-09T14:33:53.729Z,21.03
2022-09-09T14:36:20.353Z,20.63
2022-09-09T14:38:46.919Z,19.82
2022-09-09T14:41:17.982Z,19.09
2022-09-09T14:43:45.650Z,18.58
2022-09-09T14:46:14.746Z,18.27
2022-09-09T14:48:41.722Z,18.08
2022-09-09T14:51:13.970Z,17.87
2022-09-09T14:53:43.632Z,17.70
2022-09-09T14:56:19.591Z,17.60
2022-09-09T14:58:47.313Z,17.53
2022-09-09T15:01:16.302Z,17.47
2022-09-09T15:03:48.950Z,17.49
2022-09-09T15:06:16.433Z,17.55
2022-09-09T15:08:45.022Z,17.49
2022-09-09T15:11:12.852Z,17.50
2022-09-09T15:13:41.171Z,17.51
2022-09-09T15:16:16.234Z,17.49
2022-09-09T15:18:45.193Z,17.49
2022-09-09T15:21:22.804Z,17.52
2022-09-09T15:23:49.994Z,17.56
2022-09-09T15:26:18.060Z,17.63
2022-09-09T15:28:46.587Z,17.76
2022-09-09T15:31:13.143Z,17.91
2022-09-09T15:33:39.779Z,18.09
2022-09-09T15:36:18.501Z,18.32
2022-09-09T15:38:46.251Z,18.49
2022-09-09T15:41:14.438Z,18.71
2022-09-09T15:43:46.642Z,18.86
2022-09-09T15:46:19.095Z,19.04
2022-09-09T15:48:47.363Z,19.09
2022-09-09T15:51:38.002Z,19.16
2022-09-09T15:54:02.306Z,19.24
2022-09-09T15:56:31.529Z,19.26
2022-09-09T15:58:59.876Z,19.28
2022-09-09T16:01:28.123Z,19.25
2022-09-09T16:03:55.150Z,19.21
2022-09-09T16:06:26.592Z,19.02
2022-09-09T16:08:54.363Z,18.93
2022-09-09T16:11:26.851Z,18.86
2022-09-09T16:13:55.227Z,18.77
2022-09-09T16:16:25.186Z,18.66
2022-09-09T16:18:55.351Z,18.66
2022-09-09T16:21:30.287Z,18.54
2022-09-09T16:24:00.676Z,18.58
2022-09-09T16:26:28.716Z,18.50
2022-09-09T16:28:55.360Z,18.48
2022-09-09T16:31:24.090Z,18.52
2022-09-09T16:33:51.936Z,18.51
2022-09-09T16:36:23.834Z,18.53
2022-09-09T16:38:58.549Z,18.52
2022-09-09T16:41:27.862Z,18.53
2022-09-09T16:43:56.500Z,18.44
2022-09-09T16:46:25.385Z,18.45
2022-09-09T16:48:52.915Z,18.43
2022-09-09T16:51:37.680Z,18.39
2022-09-09T16:54:09.525Z,18.38
2022-09-09T16:56:39.966Z,18.36
2022-09-09T16:59:09.948Z,18.31
2022-09-09T17:01:39.194Z,18.28
2022-09-09T17:04:16.410Z,18.29
2022-09-09T17:06:43.252Z,18.25
2022-09-09T17:09:11.549Z,18.18
2022-09-09T17:11:39.963Z,18.12
2022-09-09T17:14:09.011Z,18.12
2022-09-09T17:16:36.825Z,18.11
2022-09-09T17:19:05.199Z,18.02
2022-09-09T17:21:33.094Z,18.00
2022-09-09T17:24:00.009Z,17.95
2022-09-09T17:26:30.169Z,17.92
2022-09-09T17:28:59.874Z,17.89
2022-09-09T17:31:27.556Z,17.85
2022-09-09T17:33:55.044Z,17.83
2022-09-09T17:36:28.872Z,17.80
2022-09-09T17:38:55.590Z,17.75
2022-09-09T17:41:24.809Z,17.75
2022-09-09T17:43:52.516Z,17.77
2022-09-09T17:46:22.613Z,17.71
2022-09-09T17:48:51.981Z,17.69
2022-09-09T17:51:21.258Z,17.68
2022-09-09T17:53:49.767Z,17.65
2022-09-09T17:56:21.031Z,17.66
2022-09-09T17:58:48.282Z,17.66
2022-09-09T18:01:20.608Z,17.66
2022-09-09T18:03:49.070Z,17.64
2022-09-09T18:06:22.010Z,17.60
2022-09-09T18:08:59.230Z,17.54
2022-09-09T18:11:29.164Z,17.52
2022-09-09T18:13:58.302Z,17.51
2022-09-09T18:16:26.849Z,17.48
2022-09-09T18:18:55.967Z,17.47
2022-09-09T18:21:23.554Z,17.42
2022-09-09T18:23:52.297Z,17.39
2022-09-09T18:26:24.657Z,17.37
2022-09-09T18:28:53.217Z,17.31
2022-09-09T18:31:21.376Z,17.34
2022-09-09T18:33:53.341Z,17.37
2022-09-09T18:36:26.845Z,17.35
2022-09-09T18:38:54.127Z,17.37
2022-09-09T18:41:22.652Z,17.42
2022-09-09T18:43:51.710Z,17.43
2022-09-09T18:46:19.610Z,17.43
2022-09-09T18:48:47.761Z,17.45
2022-09-09T18:51:16.620Z,17.47
2022-09-09T18:53:43.634Z,17.49
2022-09-09T18:56:13.205Z,17.51
2022-09-09T18:58:40.408Z,17.60
2022-09-09T19:01:12.458Z,17.62
2022-09-09T19:03:39.494Z,17.61
2022-09-09T19:06:17.119Z,17.63
2022-09-09T19:08:45.263Z,17.67
2022-09-09T19:11:22.414Z,17.64
2022-09-09T19:13:58.542Z,17.59
2022-09-09T19:16:30.226Z,17.56
2022-09-09T19:19:03.113Z,17.54
2022-09-09T19:21:35.787Z,17.51
2022-09-09T19:24:13.291Z,17.48
2022-09-09T19:26:44.055Z,17.47
2022-09-09T19:29:17.642Z,17.42
2022-09-09T19:32:09.415Z,17.38
2022-09-09T19:34:32.356Z,17.35
2022-09-09T19:36:58.871Z,17.28
2022-09-09T19:39:25.360Z,17.25
2022-09-09T19:41:51.884Z,17.22
2022-09-09T19:44:18.432Z,17.20
2022-09-09T19:46:48.268Z,17.20
2022-09-09T19:49:15.648Z,17.16
2022-09-09T19:51:42.446Z,17.14
2022-09-09T19:54:11.486Z,17.08
2022-09-09T19:56:39.729Z,17.07
2022-09-09T19:59:07.699Z,17.04
2022-09-09T20:01:40.068Z,17.05
2022-09-09T20:04:07.850Z,17.06
2022-09-09T20:06:37.980Z,17.09
2022-09-09T20:09:06.568Z,17.08
2022-09-09T20:11:33.403Z,17.08
2022-09-09T20:13:59.933Z,17.07
2022-09-09T20:16:29.138Z,17.06
2022-09-09T20:18:58.633Z,17.06
2022-09-09T20:21:31.277Z,17.03
2022-09-09T20:24:01.244Z,17.08
2022-09-09T20:26:30.448Z,17.06
2022-09-09T20:28:57.004Z,17.08
2022-09-09T20:31:31.510Z,17.07
2022-09-09T20:33:58.371Z,17.11
2022-09-09T20:36:33.926Z,17.14
2022-09-09T20:39:07.333Z,17.13
2022-09-09T20:41:36.210Z,17.07
2022-09-09T20:44:06.091Z,17.08
2022-09-09T20:46:36.472Z,17.09
2022-09-09T20:49:04.748Z,17.10
2022-09-09T20:51:33.663Z,17.07
2022-09-09T20:54:03.874Z,17.03
2022-09-09T20:56:34.282Z,17.04
2022-09-09T20:59:01.462Z,17.02
2022-09-09T21:01:28.272Z,17.03
2022-09-09T21:03:55.441Z,17.05
2022-09-09T21:06:22.812Z,17.06
2022-09-09T21:08:49.969Z,17.06
2022-09-09T21:11:17.599Z,17.03
2022-09-09T21:13:44.481Z,17.00
2022-09-09T21:16:14.945Z,17.00
2022-09-09T21:18:43.073Z,16.98
2022-09-09T21:21:09.620Z,16.93
2022-09-09T21:23:36.282Z,16.92
2022-09-09T21:26:03.706Z,16.90
2022-09-09T21:28:31.485Z,16.88
2022-09-09T21:30:58.408Z,16.88
2022-09-09T21:33:28.236Z,16.82
2022-09-09T21:36:06.419Z,16.79
2022-09-09T21:38:33.598Z,16.77
2022-09-09T21:41:13.113Z,16.73
2022-09-09T21:43:41.966Z,16.71
2022-09-09T21:46:14.767Z,16.69
2022-09-09T21:48:44.550Z,16.68
2022-09-09T21:51:14.770Z,16.70
2022-09-09T21:53:41.791Z,16.72
2022-09-09T21:56:12.265Z,16.72
2022-09-09T21:58:40.866Z,16.71
2022-09-09T22:01:16.611Z,16.74
2022-09-09T22:03:44.163Z,16.76
2022-09-09T22:06:14.101Z,16.78
2022-09-09T22:08:41.082Z,16.82
2022-09-09T22:11:10.266Z,16.81
2022-09-09T22:13:38.336Z,16.83
2022-09-09T22:16:07.621Z,16.83
2022-09-09T22:18:34.875Z,16.83
2022-09-09T22:21:10.258Z,16.79
2022-09-09T22:23:36.967Z,16.74
2022-09-09T22:26:05.047Z,16.71
2022-09-09T22:28:33.193Z,16.68
2022-09-09T22:31:00.375Z,16.65
2022-09-09T22:33:28.069Z,16.59
2022-09-09T22:35:54.641Z,16.59
2022-09-09T22:38:22.370Z,16.55
2022-09-09T22:40:49.617Z,16.55
2022-09-09T22:43:19.483Z,16.52
2022-09-09T22:45:46.648Z,16.48
2022-09-09T22:48:14.689Z,16.48
2022-09-09T22:50:42.672Z,16.45
2022-09-09T22:53:13.521Z,16.40
2022-09-09T22:55:40.592Z,16.38
2022-09-09T22:58:07.299Z,16.36
2022-09-09T23:00:40.212Z,16.34
2022-09-09T23:03:06.684Z,16.29
2022-09-09T23:05:33.544Z,16.27
2022-09-09T23:08:00.041Z,16.26
2022-09-09T23:10:27.216Z,16.27
2022-09-09T23:12:54.195Z,16.26
2022-09-09T23:15:20.932Z,16.29
2022-09-09T23:17:47.437Z,16.31
2022-09-09T23:20:13.920Z,16.26
2022-09-09T23:22:40.633Z,16.27
2022-09-09T23:25:07.859Z,16.27
2022-09-09T23:27:34.675Z,16.30
2022-09-09T23:30:01.608Z,16.32
2022-09-09T23:32:28.232Z,16.35
2022-09-09T23:34:54.873Z,16.37
2022-09-09T23:37:21.386Z,16.37
2022-09-09T23:39:48.178Z,16.40
2022-09-09T23:42:15.375Z,16.41
2022-09-09T23:44:42.203Z,16.41
2022-09-09T23:47:09.681Z,16.37
2022-09-09T23:49:39.956Z,16.42
2022-09-09T23:52:06.741Z,16.45
2022-09-09T23:54:34.856Z,16.46
2022-09-09T23:57:03.328Z,16.49
2022-09-09T23:59:31.452Z,16.52
